createdAt,value
2018-12-12T00:02:24.655Z,4.00
2018-12-12T00:04:50.889Z,4.00
2018-12-12T00:07:17.088Z,4.10
2018-12-12T00:09:43.234Z,4.00
2018-12-12T00:12:09.444Z,4.00
2018-12-12T00:14:35.620Z,4.00
2018-12-12T00:17:01.702Z,4.00
2018-12-12T00:19:27.786Z,4.00
2018-12-12T00:21:53.994Z,4.00
2018-12-12T00:24:21.307Z,4.00
2018-12-12T00:26:47.536Z,4.00
2018-12-12T00:29:20.714Z,4.10
2018-12-12T00:31:50.265Z,4.10
2018-12-12T00:34:17.552Z,4.10
2018-12-12T00:36:43.773Z,4.10
2018-12-12T00:39:09.927Z,4.10
2018-12-12T00:41:40.377Z,4.00
2018-12-12T00:44:09.631Z,3.90
2018-12-12T00:46:36.133Z,3.90
2018-12-12T00:49:02.691Z,3.90
2018-12-12T00:51:29.821Z,3.90
2018-12-12T00:54:07.719Z,4.00
2018-12-12T00:56:39.015Z,3.90
2018-12-12T00:59:05.340Z,3.90
2018-12-12T01:01:31.746Z,3.80
2018-12-12T01:03:57.822Z,3.80
2018-12-12T01:06:25.074Z,3.80
2018-12-12T01:08:52.330Z,3.70
2018-12-12T01:11:25.644Z,3.80
2018-12-12T01:13:52.338Z,3.80
2018-12-12T01:16:18.615Z,3.90
2018-12-12T01:18:44.615Z,3.90
2018-12-12T01:21:10.662Z,3.90
2018-12-12T01:23:37.199Z,3.90
2018-12-12T01:26:03.381Z,3.90
2018-12-12T01:28:36.755Z,3.90
2018-12-12T01:31:02.958Z,3.90
2018-12-12T01:33:41.030Z,3.90
2018-12-12T01:36:10.360Z,4.00
2018-12-12T01:38:36.601Z,4.00
2018-12-12T01:41:02.837Z,4.00
2018-12-12T01:43:29.047Z,4.00
2018-12-12T01:45:55.269Z,4.00
2018-12-12T01:48:21.379Z,4.00
2018-12-12T01:50:48.556Z,4.00
2018-12-12T01:53:14.837Z,4.10
2018-12-12T01:55:41.067Z,4.10
2018-12-12T01:58:07.189Z,4.10
2018-12-12T02:00:33.907Z,4.00
2018-12-12T02:03:01.167Z,4.00
2018-12-12T02:05:31.236Z,4.00
2018-12-12T02:07:57.467Z,4.10
2018-12-12T02:10:24.812Z,4.10
2018-12-12T02:13:09.396Z,4.20
2018-12-12T02:15:36.525Z,4.20
2018-12-12T02:18:03.050Z,4.30
2018-12-12T02:20:29.199Z,4.30
2018-12-12T02:22:55.362Z,4.30
2018-12-12T02:25:21.598Z,4.30
2018-12-12T02:27:47.759Z,4.30
2018-12-12T02:30:14.105Z,4.30
2018-12-12T02:32:40.357Z,4.30
2018-12-12T02:35:06.648Z,4.30
2018-12-12T02:37:34.639Z,4.30
2018-12-12T02:40:00.913Z,4.30
2018-12-12T02:42:27.089Z,4.50
2018-12-12T02:44:53.365Z,4.50
2018-12-12T02:47:21.545Z,4.50
2018-12-12T02:49:54.617Z,4.50
2018-12-12T02:52:21.018Z,4.60
2018-12-12T02:55:01.166Z,4.60
2018-12-12T02:57:38.194Z,4.60
2018-12-12T03:00:09.575Z,4.60
2018-12-12T03:02:36.537Z,4.60
2018-12-12T03:05:03.224Z,4.50
2018-12-12T03:07:29.372Z,4.40
2018-12-12T03:09:55.676Z,4.50
2018-12-12T03:12:21.979Z,4.50
2018-12-12T03:14:48.126Z,4.50
2018-12-12T03:17:14.377Z,4.50
2018-12-12T03:19:40.511Z,4.60
2018-12-12T03:22:06.591Z,4.60
2018-12-12T03:24:32.910Z,4.60
2018-12-12T03:26:59.114Z,4.60
2018-12-12T03:29:25.424Z,4.70
2018-12-12T03:31:51.738Z,4.60
2018-12-12T03:34:17.883Z,4.60
2018-12-12T03:36:43.970Z,4.60
2018-12-12T03:39:11.186Z,4.50
2018-12-12T03:41:38.445Z,4.40
2018-12-12T03:44:08.084Z,4.40
2018-12-12T03:46:34.318Z,4.20
2018-12-12T03:49:00.503Z,4.30
2018-12-12T03:51:26.840Z,4.30
2018-12-12T03:53:57.669Z,4.20
2018-12-12T03:56:24.026Z,4.40
2018-12-12T03:58:50.116Z,4.50
2018-12-12T04:01:16.171Z,4.60
2018-12-12T04:03:42.379Z,4.60
2018-12-12T04:06:08.475Z,4.60
2018-12-12T04:08:34.732Z,4.70
2018-12-12T04:11:01.132Z,4.70
2018-12-12T04:13:27.211Z,4.70
2018-12-12T04:15:53.354Z,4.80
2018-12-12T04:18:19.682Z,4.80
2018-12-12T04:20:45.856Z,4.90
2018-12-12T04:23:12.048Z,5.00
2018-12-12T04:25:39.208Z,5.00
2018-12-12T04:28:05.388Z,5.00
2018-12-12T04:30:31.422Z,4.80
2018-12-12T04:32:57.753Z,4.80
2018-12-12T04:35:25.007Z,4.80
2018-12-12T04:40:47.734Z,5.10
2018-12-12T04:43:22.360Z,5.10
2018-12-12T04:45:48.584Z,4.90
2018-12-12T04:48:14.659Z,4.80
2018-12-12T04:50:41.025Z,4.70
2018-12-12T04:53:08.192Z,4.60
2018-12-12T04:55:34.311Z,4.50
2018-12-12T04:58:07.361Z,4.50
2018-12-12T05:00:33.621Z,4.50
2018-12-12T05:03:00.101Z,4.50
2018-12-12T05:05:29.950Z,4.50
2018-12-12T05:08:00.285Z,4.40
2018-12-12T05:10:26.421Z,4.30
2018-12-12T05:12:53.967Z,4.20
2018-12-12T05:15:20.114Z,4.20
2018-12-12T05:17:46.521Z,4.10
2018-12-12T05:20:12.766Z,4.20
2018-12-12T05:22:40.128Z,4.30
2018-12-12T05:25:06.466Z,4.40
2018-12-12T05:30:33.538Z,4.60
2018-12-12T05:33:00.195Z,4.60
2018-12-12T05:35:26.391Z,4.60
2018-12-12T05:37:53.362Z,4.70
2018-12-12T05:40:20.471Z,4.70
2018-12-12T05:42:47.123Z,4.60
2018-12-12T05:45:19.400Z,4.50
2018-12-12T05:47:51.808Z,4.60
2018-12-12T05:50:27.035Z,4.70
2018-12-12T05:53:02.794Z,4.70
2018-12-12T05:55:31.566Z,4.60
2018-12-12T05:57:59.008Z,4.60
2018-12-12T06:00:26.964Z,4.50
2018-12-12T06:02:53.350Z,4.60
2018-12-12T06:05:20.678Z,4.60
2018-12-12T06:07:47.842Z,4.60
2018-12-12T06:10:14.101Z,4.60
2018-12-12T06:12:41.171Z,4.60
2018-12-12T06:15:08.290Z,4.60
2018-12-12T06:17:36.687Z,4.60
2018-12-12T06:20:06.461Z,4.60
2018-12-12T06:22:41.502Z,4.50
2018-12-12T06:25:10.178Z,4.50
2018-12-12T06:27:37.567Z,4.60
2018-12-12T06:30:08.630Z,4.60
2018-12-12T06:32:35.728Z,4.60
2018-12-12T06:35:03.169Z,4.60
2018-12-12T06:37:32.507Z,4.60
2018-12-12T06:40:00.294Z,4.60
2018-12-12T06:42:28.087Z,4.70
2018-12-12T06:44:56.324Z,4.70
2018-12-12T06:47:23.490Z,4.60
2018-12-12T06:49:49.636Z,4.70
2018-12-12T06:52:16.664Z,4.80
2018-12-12T06:54:43.113Z,4.80
2018-12-12T06:57:09.197Z,4.90
2018-12-12T06:59:36.045Z,4.90
2018-12-12T07:02:02.468Z,4.90
2018-12-12T07:04:30.913Z,4.80
2018-12-12T07:06:57.596Z,4.80
2018-12-12T07:09:23.809Z,4.70
2018-12-12T07:11:49.907Z,4.80
2018-12-12T07:14:16.149Z,5.00
2018-12-12T07:16:42.377Z,5.10
2018-12-12T07:19:08.463Z,5.10
2018-12-12T07:21:34.753Z,5.10
2018-12-12T07:24:03.068Z,5.30
2018-12-12T07:26:29.296Z,5.30
2018-12-12T07:28:55.439Z,5.30
2018-12-12T07:31:22.633Z,5.30
2018-12-12T07:33:48.809Z,5.20
2018-12-12T07:36:16.171Z,5.20
2018-12-12T07:38:42.277Z,5.30
2018-12-12T07:41:08.727Z,5.30
2018-12-12T07:43:34.845Z,5.30
2018-12-12T07:46:01.085Z,5.10
2018-12-12T07:48:27.446Z,5.00
2018-12-12T07:50:53.560Z,4.90
2018-12-12T07:53:20.152Z,4.80
2018-12-12T07:55:47.180Z,4.80
2018-12-12T07:58:14.562Z,4.80
2018-12-12T08:00:40.815Z,4.80
2018-12-12T08:03:07.228Z,4.80
2018-12-12T08:05:33.753Z,4.80
2018-12-12T08:08:04.850Z,4.70
2018-12-12T08:10:32.404Z,4.70
2018-12-12T08:12:59.101Z,4.60
2018-12-12T08:15:25.363Z,4.60
2018-12-12T08:17:51.613Z,4.50
2018-12-12T08:20:18.660Z,4.50
2018-12-12T08:22:44.861Z,4.40
2018-12-12T08:25:11.143Z,4.40
2018-12-12T08:27:37.276Z,4.40
2018-12-12T08:30:05.273Z,4.40
2018-12-12T08:32:31.482Z,4.30
2018-12-12T08:34:57.911Z,4.30
2018-12-12T08:37:24.157Z,4.30
2018-12-12T08:39:50.178Z,4.20
2018-12-12T08:42:16.407Z,4.30
2018-12-12T08:44:42.518Z,4.30
2018-12-12T08:47:09.134Z,4.30
2018-12-12T08:49:35.397Z,4.40
2018-12-12T08:52:15.075Z,4.50
2018-12-12T08:54:41.155Z,4.40
2018-12-12T08:57:08.830Z,4.50
2018-12-12T08:59:34.916Z,4.40
2018-12-12T09:02:01.255Z,4.30
2018-12-12T09:04:27.405Z,4.30
2018-12-12T09:06:53.527Z,4.30
2018-12-12T09:09:19.736Z,4.30
2018-12-12T09:11:45.986Z,4.40
2018-12-12T09:14:12.149Z,4.40
2018-12-12T09:16:38.432Z,4.50
2018-12-12T09:19:04.682Z,4.40
2018-12-12T09:21:30.944Z,4.40
2018-12-12T09:23:57.203Z,4.40
2018-12-12T09:26:23.344Z,4.50
2018-12-12T09:28:49.410Z,4.50
2018-12-12T09:31:15.805Z,4.40
2018-12-12T09:33:41.955Z,4.40
2018-12-12T09:36:08.170Z,4.50
2018-12-12T09:38:34.416Z,4.80
2018-12-12T09:41:02.396Z,4.80
2018-12-12T09:43:28.693Z,4.80
2018-12-12T09:45:54.841Z,4.90
2018-12-12T09:48:21.320Z,4.80
2018-12-12T09:50:47.693Z,4.80
2018-12-12T09:53:14.813Z,4.90
2018-12-12T09:55:42.498Z,4.90
2018-12-12T09:58:09.490Z,5.00
2018-12-12T10:00:35.626Z,5.00
2018-12-12T10:03:02.641Z,4.90
2018-12-12T10:05:29.791Z,4.90
2018-12-12T10:07:55.793Z,4.90
2018-12-12T10:10:22.979Z,4.90
2018-12-12T10:12:49.079Z,4.90
2018-12-12T10:15:20.102Z,5.00
2018-12-12T10:17:51.195Z,5.10
2018-12-12T10:20:19.402Z,5.20
2018-12-12T10:22:48.931Z,5.30
2018-12-12T10:25:15.570Z,5.20
2018-12-12T10:27:43.903Z,5.20
2018-12-12T10:30:10.211Z,5.10
2018-12-12T10:32:37.433Z,5.10
2018-12-12T10:35:03.917Z,5.10
2018-12-12T10:37:30.217Z,5.20
2018-12-12T10:39:56.534Z,5.10
2018-12-12T10:42:26.742Z,5.10
2018-12-12T10:44:52.872Z,5.20
2018-12-12T10:47:22.423Z,5.30
2018-12-12T10:49:48.619Z,5.30
2018-12-12T10:52:14.762Z,5.30
2018-12-12T10:54:41.060Z,5.30
2018-12-12T10:57:08.152Z,5.20
2018-12-12T10:59:41.328Z,5.20
2018-12-12T11:02:13.728Z,5.30
2018-12-12T11:04:43.515Z,5.40
2018-12-12T11:07:09.841Z,5.50
2018-12-12T11:09:36.312Z,5.50
2018-12-12T11:12:02.919Z,5.40
2018-12-12T11:14:28.913Z,5.20
2018-12-12T11:16:55.372Z,5.40
2018-12-12T11:19:21.731Z,5.40
2018-12-12T11:21:48.930Z,5.40
2018-12-12T11:24:15.233Z,5.30
2018-12-12T11:26:41.512Z,5.30
2018-12-12T11:29:07.783Z,5.30
2018-12-12T11:31:34.497Z,5.40
2018-12-12T11:34:00.932Z,5.30
2018-12-12T11:36:27.302Z,5.30
2018-12-12T11:38:53.349Z,5.30
2018-12-12T11:41:22.627Z,5.40
2018-12-12T11:43:49.569Z,5.50
2018-12-12T11:46:15.947Z,5.60
2018-12-12T11:48:42.075Z,5.60
2018-12-12T11:51:08.707Z,5.50
2018-12-12T11:53:35.763Z,5.40
2018-12-12T11:56:02.020Z,5.40
2018-12-12T11:58:28.216Z,5.40
2018-12-12T12:00:55.774Z,5.30
2018-12-12T12:03:23.314Z,5.30
2018-12-12T12:05:49.529Z,5.20
2018-12-12T12:08:19.007Z,5.30
2018-12-12T12:10:47.263Z,5.20
2018-12-12T12:13:13.496Z,5.20
2018-12-12T12:15:39.703Z,5.30
2018-12-12T12:18:05.978Z,5.30
2018-12-12T12:20:32.255Z,5.50
2018-12-12T12:22:58.693Z,5.50
2018-12-12T12:25:29.234Z,5.60
2018-12-12T12:27:55.400Z,5.60
2018-12-12T12:30:21.794Z,5.70
2018-12-12T12:32:48.172Z,5.80
2018-12-12T12:35:14.418Z,5.80
2018-12-12T12:37:40.566Z,6.20
2018-12-12T12:40:07.920Z,6.60
2018-12-12T12:42:34.103Z,6.90
2018-12-12T12:45:01.562Z,7.40
2018-12-12T12:47:28.014Z,7.80
2018-12-12T12:49:54.334Z,7.90
2018-12-12T12:52:20.661Z,7.50
2018-12-12T12:54:54.951Z,7.00
2018-12-12T12:57:25.242Z,6.60
2018-12-12T12:59:51.419Z,6.40
2018-12-12T13:02:18.574Z,6.60
2018-12-12T13:04:44.759Z,6.80
2018-12-12T13:07:11.009Z,7.00
2018-12-12T13:09:38.871Z,6.80
2018-12-12T13:12:11.245Z,6.70
2018-12-12T13:14:37.826Z,6.50
2018-12-12T13:17:04.150Z,6.40
2018-12-12T13:19:31.489Z,6.20
2018-12-12T13:21:57.639Z,6.20
2018-12-12T13:24:24.811Z,6.10
2018-12-12T13:26:53.552Z,6.10
2018-12-12T13:29:19.207Z,6.10
2018-12-12T13:31:45.523Z,6.10
2018-12-12T13:34:16.219Z,6.40
2018-12-12T13:36:48.338Z,6.50
2018-12-12T13:39:14.498Z,6.40
2018-12-12T13:41:46.057Z,6.30
2018-12-12T13:44:12.235Z,6.20
2018-12-12T13:46:40.564Z,6.20
2018-12-12T13:49:06.802Z,6.20
2018-12-12T13:51:43.404Z,6.30
2018-12-12T13:54:09.538Z,6.40
2018-12-12T13:56:35.858Z,6.30
2018-12-12T13:59:02.394Z,6.20
2018-12-12T14:01:29.702Z,6.30
2018-12-12T14:03:57.113Z,6.60
2018-12-12T14:06:27.302Z,6.80
2018-12-12T14:08:53.584Z,6.90
2018-12-12T14:11:19.827Z,6.90
2018-12-12T14:13:46.132Z,6.80
2018-12-12T14:16:13.038Z,6.70
2018-12-12T14:18:40.229Z,6.60
2018-12-12T14:21:06.762Z,6.40
2018-12-12T14:23:33.069Z,6.30
2018-12-12T14:25:59.154Z,6.20
2018-12-12T14:28:28.202Z,6.10
2018-12-12T14:30:54.464Z,6.00
2018-12-12T14:33:24.877Z,6.00
2018-12-12T14:35:53.359Z,6.00
2018-12-12T14:38:19.581Z,6.00
2018-12-12T14:40:46.730Z,5.90
2018-12-12T14:43:13.019Z,6.00
2018-12-12T14:45:40.504Z,5.90
2018-12-12T14:51:05.253Z,5.90
2018-12-12T14:53:33.600Z,5.80
2018-12-12T14:55:59.827Z,5.80
2018-12-12T14:58:30.882Z,5.80
2018-12-12T15:00:57.035Z,5.80
2018-12-12T15:03:25.398Z,5.80
2018-12-12T15:05:53.613Z,5.80
2018-12-12T15:08:21.078Z,5.70
2018-12-12T15:10:48.527Z,5.70
2018-12-12T15:13:15.835Z,5.70
2018-12-12T15:15:43.610Z,5.60
2018-12-12T15:18:11.002Z,5.60
2018-12-12T15:20:39.183Z,5.60
2018-12-12T15:23:05.462Z,5.60
2018-12-12T15:25:31.582Z,5.60
2018-12-12T15:27:57.786Z,5.60
2018-12-12T15:30:24.152Z,5.60
2018-12-12T15:32:50.404Z,5.50
2018-12-12T15:35:16.818Z,5.60
2018-12-12T15:37:43.417Z,5.60
2018-12-12T15:40:10.907Z,5.70
2018-12-12T15:42:39.255Z,5.60
2018-12-12T15:45:09.399Z,5.60
2018-12-12T15:47:35.836Z,5.60
2018-12-12T15:50:03.438Z,5.60
2018-12-12T15:52:30.364Z,5.70
2018-12-12T15:54:56.624Z,5.70
2018-12-12T15:57:22.982Z,5.60
2018-12-12T15:59:49.294Z,5.70
2018-12-12T16:02:15.731Z,5.70
2018-12-12T16:04:42.076Z,5.60
2018-12-12T16:07:10.379Z,5.60
2018-12-12T16:09:38.723Z,5.70
2018-12-12T16:12:04.998Z,5.60
2018-12-12T16:14:31.426Z,5.60
2018-12-12T16:16:58.881Z,5.60
2018-12-12T16:19:25.415Z,5.50
2018-12-12T16:21:51.644Z,5.50
2018-12-12T16:24:18.930Z,5.40
2018-12-12T16:26:45.371Z,5.40
2018-12-12T16:29:11.860Z,5.40
2018-12-12T16:31:50.257Z,5.40
2018-12-12T16:34:25.577Z,5.40
2018-12-12T16:37:04.191Z,5.40
2018-12-12T16:39:31.674Z,5.30
2018-12-12T16:41:58.146Z,5.40
2018-12-12T16:44:24.508Z,5.40
2018-12-12T16:46:51.824Z,5.30
2018-12-12T16:49:19.074Z,5.30
2018-12-12T16:51:45.529Z,5.20
2018-12-12T16:54:11.837Z,5.20
2018-12-12T16:56:38.411Z,5.10
2018-12-12T16:59:04.681Z,5.10
2018-12-12T17:01:33.900Z,5.10
2018-12-12T17:04:00.728Z,5.10
2018-12-12T17:06:29.342Z,5.10
2018-12-12T17:08:56.706Z,5.00
2018-12-12T17:11:23.175Z,5.00
2018-12-12T17:13:49.511Z,5.00
2018-12-12T17:16:26.652Z,5.00
2018-12-12T17:18:54.161Z,5.00
2018-12-12T17:21:22.550Z,5.00
2018-12-12T17:23:49.026Z,5.00
2018-12-12T17:26:15.492Z,5.10
2018-12-12T17:28:41.788Z,5.10
2018-12-12T17:31:10.207Z,5.10
2018-12-12T17:33:36.899Z,5.10
2018-12-12T17:36:04.225Z,5.00
2018-12-12T17:38:30.516Z,5.00
2018-12-12T17:40:57.763Z,5.20
2018-12-12T17:43:24.134Z,5.20
2018-12-12T17:45:50.623Z,5.20
2018-12-12T17:48:16.822Z,5.10
2018-12-12T17:50:43.243Z,5.10
2018-12-12T17:53:15.214Z,5.10
2018-12-12T17:55:41.763Z,5.10
2018-12-12T17:58:08.194Z,5.20
2018-12-12T18:00:36.878Z,5.30
2018-12-12T18:03:04.332Z,5.30
2018-12-12T18:05:31.855Z,5.30
2018-12-12T18:07:58.319Z,5.20
2018-12-12T18:10:24.912Z,5.20
2018-12-12T18:12:52.630Z,5.10
2018-12-12T18:15:18.979Z,5.10
2018-12-12T18:17:46.462Z,5.00
2018-12-12T18:20:15.975Z,5.10
2018-12-12T18:22:42.411Z,5.00
2018-12-12T18:25:08.866Z,4.90
2018-12-12T18:27:35.104Z,4.90
2018-12-12T18:30:02.238Z,5.00
2018-12-12T18:32:29.776Z,5.00
2018-12-12T18:35:04.103Z,5.00
2018-12-12T18:37:36.095Z,5.00
2018-12-12T18:40:03.214Z,5.10
2018-12-12T18:42:29.829Z,5.10
2018-12-12T18:44:56.387Z,5.20
2018-12-12T18:47:23.991Z,5.10
2018-12-12T18:49:50.531Z,5.10
2018-12-12T18:52:17.009Z,5.10
2018-12-12T18:54:45.920Z,5.10
2018-12-12T18:57:12.622Z,5.00
2018-12-12T18:59:39.486Z,5.00
2018-12-12T19:02:07.029Z,4.90
2018-12-12T19:04:33.610Z,4.90
2018-12-12T19:07:00.396Z,4.90
2018-12-12T19:09:26.867Z,5.00
2018-12-12T19:12:01.846Z,4.80
2018-12-12T19:14:28.205Z,4.80
2018-12-12T19:16:54.918Z,4.90
2018-12-12T19:19:21.262Z,5.00
2018-12-12T19:21:47.707Z,5.00
2018-12-12T19:24:14.137Z,5.00
2018-12-12T19:26:40.810Z,5.00
2018-12-12T19:29:07.636Z,4.90
2018-12-12T19:31:34.169Z,4.80
2018-12-12T19:34:00.794Z,4.80
2018-12-12T19:36:27.349Z,4.80
2018-12-12T19:38:54.252Z,4.80
2018-12-12T19:41:21.137Z,4.70
2018-12-12T19:43:51.971Z,4.70
2018-12-12T19:46:19.328Z,4.60
2018-12-12T19:48:46.314Z,4.60
2018-12-12T19:51:12.785Z,4.60
2018-12-12T19:53:40.654Z,4.60
2018-12-12T19:56:10.822Z,4.60
2018-12-12T19:58:39.383Z,4.60
2018-12-12T20:01:06.621Z,4.60
2018-12-12T20:03:34.576Z,4.50
2018-12-12T20:06:01.757Z,4.50
2018-12-12T20:08:28.224Z,4.50
2018-12-12T20:10:54.717Z,4.50
2018-12-12T20:13:20.978Z,4.50
2018-12-12T20:15:48.134Z,4.50
2018-12-12T20:18:16.476Z,4.50
2018-12-12T20:20:42.988Z,4.60
2018-12-12T20:23:10.486Z,4.60
2018-12-12T20:25:36.981Z,4.50
2018-12-12T20:28:03.244Z,4.60
2018-12-12T20:30:35.324Z,4.60
2018-12-12T20:33:04.537Z,4.60
2018-12-12T20:35:31.160Z,4.60
2018-12-12T20:37:59.916Z,4.50
2018-12-12T20:40:26.842Z,4.60
2018-12-12T20:42:55.129Z,4.60
2018-12-12T20:45:21.679Z,4.60
2018-12-12T20:47:56.605Z,4.50
2018-12-12T20:50:23.132Z,4.50
2018-12-12T20:52:52.383Z,4.50
2018-12-12T20:55:21.956Z,4.50
2018-12-12T20:57:48.320Z,4.50
2018-12-12T21:00:15.122Z,4.60
2018-12-12T21:02:41.394Z,4.50
2018-12-12T21:05:08.048Z,4.40
2018-12-12T21:07:36.108Z,4.40
2018-12-12T21:10:03.876Z,4.40
2018-12-12T21:12:32.428Z,4.40
2018-12-12T21:15:01.660Z,4.30
2018-12-12T21:17:27.945Z,4.30
2018-12-12T21:22:51.777Z,4.50
2018-12-12T21:25:18.438Z,4.50
2018-12-12T21:27:45.230Z,4.50
2018-12-12T21:30:17.201Z,4.50
2018-12-12T21:32:41.216Z,4.50
2018-12-12T21:35:08.006Z,4.50
2018-12-12T21:37:34.294Z,4.50
2018-12-12T21:40:00.577Z,4.60
2018-12-12T21:42:26.808Z,4.70
2018-12-12T21:44:53.265Z,4.60
2018-12-12T21:47:20.409Z,4.60
2018-12-12T21:49:47.513Z,4.50
2018-12-12T21:52:14.241Z,4.50
2018-12-12T21:54:48.621Z,4.40
2018-12-12T21:57:16.767Z,4.40
2018-12-12T21:59:43.357Z,4.50
2018-12-12T22:02:09.729Z,4.40
2018-12-12T22:04:37.332Z,4.40
2018-12-12T22:07:03.742Z,4.50
2018-12-12T22:09:29.953Z,4.70
2018-12-12T22:11:56.283Z,4.70
2018-12-12T22:14:23.819Z,4.70
2018-12-12T22:16:52.770Z,4.70
2018-12-12T22:19:20.033Z,4.70
2018-12-12T22:21:46.496Z,4.70
2018-12-12T22:24:12.994Z,4.80
2018-12-12T22:26:39.407Z,4.90
2018-12-12T22:29:05.798Z,4.80
2018-12-12T22:31:32.131Z,4.80
2018-12-12T22:34:01.398Z,4.80
2018-12-12T22:36:27.366Z,4.80
2018-12-12T22:38:53.539Z,4.80
2018-12-12T22:41:19.747Z,4.70
2018-12-12T22:43:45.899Z,4.60
2018-12-12T22:46:12.157Z,4.60
2018-12-12T22:48:38.276Z,4.50
2018-12-12T22:51:04.542Z,4.50
2018-12-12T22:53:31.098Z,4.50
2018-12-12T22:55:57.410Z,4.50
2018-12-12T22:58:27.589Z,4.60
2018-12-12T23:00:58.724Z,4.70
2018-12-12T23:03:25.055Z,4.70
2018-12-12T23:05:51.078Z,4.60
2018-12-12T23:08:17.171Z,4.60
2018-12-12T23:10:51.027Z,4.50
2018-12-12T23:13:20.154Z,4.40
2018-12-12T23:15:46.202Z,4.30
2018-12-12T23:18:12.342Z,4.30
2018-12-12T23:20:38.503Z,4.20
2018-12-12T23:23:04.705Z,4.30
2018-12-12T23:25:30.955Z,4.20
2018-12-12T23:27:57.300Z,4.30
2018-12-12T23:30:23.573Z,4.30
2018-12-12T23:32:49.779Z,4.20
2018-12-12T23:35:15.947Z,4.20
2018-12-12T23:37:42.005Z,4.00
2018-12-12T23:40:08.316Z,4.00
2018-12-12T23:42:34.522Z,3.90
2018-12-12T23:45:00.693Z,3.90
2018-12-12T23:47:26.970Z,3.90
2018-12-12T23:49:54.200Z,4.00
2018-12-12T23:52:20.406Z,4.10
2018-12-12T23:54:46.408Z,4.10
2018-12-12T23:57:12.666Z,4.10
2018-12-12T23:59:38.923Z,4.00
